»·PEaware :: N409BH KFHR-KELN

N409BH :: KFHR-KELN

FLIGHT INFORMATION

Flight Status: Arrived
Operator: Privately registered:
United States
More flights under this callsign
Pilot: Rick S. (2164)
Aircraft: MOONEY M-20 201 202 205 220 ATS MSE
(M20P)
More flights by this aircraft type
Origin: KFHR Friday Harbor
United States
Destination: KELN Bowers
United States
More flights between these airports :: More routes between these airports
Route: +ORCUS V495 DIGGN V165 JUVGA SEA V2 ELN ELIYO
File this flight plan on PilotEdge
Remarks:
Altitude:
(Current/Filed)
9,000ft
Speed:
(Current/Filed)
253kts
Departed: 24-Oct-20 08:37 AM
Arrived: 24-Oct-20 09:37 AM
Distance/Time
Traveled:
135nm/1:00
Distance/Time
To Go:
Arrived

Flight Plot

Page will automatically refresh every two minutes.

Flight plan parsing failed; only flown route is shown


Map Options




Map Legend


Flown Route
Filed Route
Departure Airport
Arrival Airport
Navaid (VOR, NDB)
Fix

Horizontal Profiles

Position Reports

Time Latitude Longitude Heading Altitude Ground
Speed
24-Oct-20 07:58 48.526461 -123.026253 87 118ft 0kts
24-Oct-20 07:59 48.526461 -123.026253 87 118ft 0kts
24-Oct-20 08:00 48.526461 -123.026253 87 118ft 0kts
24-Oct-20 08:01 48.526461 -123.026253 87 118ft 0kts
24-Oct-20 08:02 48.526461 -123.026253 87 118ft 0kts
24-Oct-20 08:03 48.526461 -123.026253 87 118ft 0kts
24-Oct-20 08:04 48.526461 -123.026253 87 118ft 0kts
24-Oct-20 08:05 48.526461 -123.026253 87 118ft 0kts
24-Oct-20 08:06 48.526461 -123.026252 87 118ft 0kts
24-Oct-20 08:07 48.526461 -123.026252 87 118ft 0kts
24-Oct-20 08:08 48.526461 -123.026252 87 118ft 0kts
24-Oct-20 08:09 48.526461 -123.026252 87 118ft 0kts
24-Oct-20 08:10 48.526461 -123.026252 87 118ft 0kts
24-Oct-20 08:11 48.526461 -123.026252 87 118ft 0kts
24-Oct-20 08:12 48.524891 -123.025294 160 107ft 26kts
24-Oct-20 08:13 48.517670 -123.024683 216 86ft 9kts
24-Oct-20 08:14 48.517466 -123.024883 219 86ft 0kts
24-Oct-20 08:14 48.517464 -123.024636 116 86ft 0kts
24-Oct-20 08:19 48.525625 -123.026202 87 116ft 0kts
24-Oct-20 08:20 48.525625 -123.026202 87 116ft 0kts
24-Oct-20 08:21 48.525625 -123.026202 87 116ft 0kts
24-Oct-20 08:22 48.522698 -123.025024 175 98ft 21kts
24-Oct-20 08:23 48.517425 -123.024623 153 86ft 0kts
24-Oct-20 08:24 48.517425 -123.024623 153 86ft 0kts
24-Oct-20 08:25 48.517425 -123.024623 153 86ft 0kts
24-Oct-20 08:26 48.517425 -123.024623 153 86ft 0kts
24-Oct-20 08:27 48.517425 -123.024623 153 86ft 0kts
24-Oct-20 08:28 48.517425 -123.024623 153 86ft 0kts
24-Oct-20 08:29 48.517425 -123.024623 153 86ft 0kts
24-Oct-20 08:30 48.517425 -123.024623 153 86ft 0kts
24-Oct-20 08:31 48.517425 -123.024623 153 86ft 0kts
24-Oct-20 08:32 48.517425 -123.024623 153 86ft 0kts
24-Oct-20 08:33 48.517425 -123.024623 153 86ft 0kts
24-Oct-20 08:34 48.517425 -123.024623 153 86ft 0kts
24-Oct-20 08:35 48.518732 -123.024022 357 88ft 37kts
24-Oct-20 08:36 48.532824 -123.013572 94 1162ft 90kts
24-Oct-20 08:37 48.504914 -123.015852 233 2188ft 144kts
24-Oct-20 08:38 48.468709 -123.046284 202 2992ft 164kts
24-Oct-20 08:39 48.426976 -123.074171 201 3927ft 161kts
24-Oct-20 08:40 48.388003 -123.100046 200 5096ft 143kts
24-Oct-20 08:41 48.353209 -123.122691 186 6278ft 128kts
24-Oct-20 08:42 48.322523 -123.105974 145 7255ft 117kts
24-Oct-20 08:43 48.293931 -123.081861 143 8142ft 121kts
24-Oct-20 08:44 48.263169 -123.054128 143 8858ft 135kts
24-Oct-20 08:45 48.226649 -123.020736 144 8998ft 172kts
24-Oct-20 08:46 48.183292 -122.981200 144 8997ft 188kts
24-Oct-20 08:47 48.138307 -122.940230 145 8997ft 187kts
24-Oct-20 08:48 48.093844 -122.899691 145 8997ft 186kts
24-Oct-20 08:49 48.049434 -122.859309 145 8997ft 186kts
24-Oct-20 08:50 48.004943 -122.818950 145 8997ft 186kts
24-Oct-20 08:51 47.960362 -122.778612 146 8997ft 187kts
24-Oct-20 08:52 47.922092 -122.730425 125 9087ft 181kts
24-Oct-20 08:53 47.890432 -122.670627 125 9087ft 184kts
24-Oct-20 08:54 47.858527 -122.609977 125 9087ft 185kts
24-Oct-20 08:55 47.826663 -122.549473 125 9087ft 185kts
24-Oct-20 08:56 47.794617 -122.488760 125 9087ft 186kts
24-Oct-20 08:57 47.762511 -122.428057 125 9087ft 186kts
24-Oct-20 08:58 47.730353 -122.367400 125 9087ft 186kts
24-Oct-20 08:59 47.698228 -122.306934 126 9087ft 186kts
24-Oct-20 09:00 47.665912 -122.246225 126 9087ft 187kts
24-Oct-20 09:01 47.633544 -122.185587 126 9087ft 187kts
24-Oct-20 09:02 47.601086 -122.124903 126 9075ft 187kts
24-Oct-20 09:03 47.568602 -122.064305 126 9048ft 187kts
24-Oct-20 09:04 47.536059 -122.003732 126 9020ft 187kts
24-Oct-20 09:05 47.503549 -121.943347 126 8994ft 187kts
24-Oct-20 09:06 47.471086 -121.883198 126 8991ft 186kts
24-Oct-20 09:07 47.438798 -121.823499 126 9018ft 185kts
24-Oct-20 09:08 47.406325 -121.763584 126 9024ft 186kts
24-Oct-20 09:09 47.373884 -121.703830 126 9030ft 187kts
24-Oct-20 09:10 47.341210 -121.643816 126 9033ft 187kts
24-Oct-20 09:11 47.308513 -121.583897 126 9033ft 187kts
24-Oct-20 09:12 47.275800 -121.524062 126 9034ft 187kts
24-Oct-20 09:13 47.251416 -121.458101 106 9092ft 184kts
24-Oct-20 09:14 47.234964 -121.386276 105 9092ft 185kts
24-Oct-20 09:15 47.218849 -121.314042 106 9093ft 185kts
24-Oct-20 09:16 47.202754 -121.241955 105 9093ft 185kts
24-Oct-20 09:17 47.186497 -121.169353 105 9093ft 185kts
24-Oct-20 09:18 47.170266 -121.097126 105 9093ft 185kts
24-Oct-20 09:19 47.154024 -121.025064 105 9093ft 185kts
24-Oct-20 09:20 47.137744 -120.953088 105 9093ft 185kts
24-Oct-20 09:21 47.121436 -120.881234 104 9093ft 185kts
24-Oct-20 09:22 47.105129 -120.809628 104 9093ft 185kts
24-Oct-20 09:23 47.088652 -120.737465 104 9003ft 188kts
24-Oct-20 09:24 47.074150 -120.664653 86 8928ft 184kts
24-Oct-20 09:25 47.074913 -120.588105 85 8333ft 186kts
24-Oct-20 09:26 47.075836 -120.512261 84 7737ft 185kts
24-Oct-20 09:27 47.076758 -120.436917 84 7140ft 184kts
24-Oct-20 09:28 47.057320 -120.372106 137 6525ft 195kts
24-Oct-20 09:29 47.018466 -120.322482 142 5868ft 182kts
24-Oct-20 09:30 46.971900 -120.339754 216 5360ft 178kts
24-Oct-20 09:31 46.954106 -120.396342 300 4687ft 166kts
24-Oct-20 09:32 46.981969 -120.445870 316 3794ft 143kts
24-Oct-20 09:33 47.002201 -120.477717 316 2710ft 86kts
24-Oct-20 09:34 47.018046 -120.502416 316 2174ft 92kts
24-Oct-20 09:35 47.034027 -120.527537 311 1756ft 53kts
24-Oct-20 09:36 47.039188 -120.534610 231 1768ft 10kts
24-Oct-20 09:37 47.034683 -120.531582 200 1753ft 24kts
24-Oct-20 09:38 47.029928 -120.532882 95 1728ft 13kts
24-Oct-20 09:39 47.029523 -120.530514 329 1729ft 0kts
24-Oct-20 09:40 47.029523 -120.530514 329 1729ft 0kts
24-Oct-20 09:41 47.029523 -120.530514 329 1729ft 0kts
24-Oct-20 09:42 47.029523 -120.530514 329 1729ft 0kts
24-Oct-20 09:43 47.029523 -120.530514 329 1729ft 0kts
24-Oct-20 09:44 47.029523 -120.530514 329 1729ft 0kts

Navigation Log

Ident Type
Flight plan parsing failed, navigation log unavailable